sensor_id;sensor_type;location;lat;lon;timestamp;pressure;altitude;pressure_sealevel;temperature;humidity
42951;BME280;28592;51.064;17.192;2022-08-01T00:01:06;99938.11;;;15.52;100.00
42951;BME280;28592;51.064;17.192;2022-08-01T00:03:51;99936.42;;;15.51;100.00
42951;BME280;28592;51.064;17.192;2022-08-01T00:06:37;99942.95;;;15.49;100.00
42951;BME280;28592;51.064;17.192;2022-08-01T00:09:22;99941.16;;;15.41;100.00
42951;BME280;28592;51.064;17.192;2022-08-01T00:12:07;99947.34;;;15.42;100.00
42951;BME280;28592;51.064;17.192;2022-08-01T00:14:53;99942.63;;;15.36;100.00
42951;BME280;28592;51.064;17.192;2022-08-01T00:17:38;99938.48;;;15.33;100.00
42951;BME280;28592;51.064;17.192;2022-08-01T00:20:23;99936.52;;;15.27;100.00
42951;BME280;28592;51.064;17.192;2022-08-01T00:23:09;99936.86;;;15.24;100.00
42951;BME280;28592;51.064;17.192;2022-08-01T00:25:54;99931.52;;;15.24;100.00
42951;BME280;28592;51.064;17.192;2022-08-01T00:28:40;99943.38;;;15.22;100.00
42951;BME280;28592;51.064;17.192;2022-08-01T00:31:25;99939.03;;;15.21;100.00
42951;BME280;28592;51.064;17.192;2022-08-01T00:34:11;99945.73;;;15.17;100.00
42951;BME280;28592;51.064;17.192;2022-08-01T00:36:56;99945.06;;;15.15;100.00
42951;BME280;28592;51.064;17.192;2022-08-01T00:39:41;99944.25;;;15.14;100.00
42951;BME280;28592;51.064;17.192;2022-08-01T00:42:27;99942.56;;;15.13;100.00
42951;BME280;28592;51.064;17.192;2022-08-01T00:45:12;99934.73;;;15.12;100.00
42951;BME280;28592;51.064;17.192;2022-08-01T00:47:57;99937.57;;;15.10;100.00
42951;BME280;28592;51.064;17.192;2022-08-01T00:50:43;99932.41;;;15.09;100.00
42951;BME280;28592;51.064;17.192;2022-08-01T00:53:29;99933.42;;;15.08;100.00
42951;BME280;28592;51.064;17.192;2022-08-01T00:56:18;99933.77;;;15.05;100.00
42951;BME280;28592;51.064;17.192;2022-08-01T00:59:04;99925.09;;;15.03;100.00
42951;BME280;28592;51.064;17.192;2022-08-01T01:01:50;99920.94;;;15.00;100.00
42951;BME280;28592;51.064;17.192;2022-08-01T01:04:36;99926.29;;;14.92;100.00
42951;BME280;28592;51.064;17.192;2022-08-01T01:07:29;99921.97;;;14.91;100.00
42951;BME280;28592;51.064;17.192;2022-08-01T01:10:29;99921.80;;;14.93;100.00
42951;BME280;28592;51.064;17.192;2022-08-01T01:13:18;99913.45;;;14.96;100.00
42951;BME280;28592;51.064;17.192;2022-08-01T01:16:10;99914.77;;;15.00;100.00
42951;BME280;28592;51.064;17.192;2022-08-01T01:18:59;99921.11;;;14.99;100.00
42951;BME280;28592;51.064;17.192;2022-08-01T01:24:56;99919.42;;;14.98;100.00
42951;BME280;28592;51.064;17.192;2022-08-01T01:30:35;99915.10;;;14.97;100.00
42951;BME280;28592;51.064;17.192;2022-08-01T01:33:24;99909.77;;;14.97;100.00
42951;BME280;28592;51.064;17.192;2022-08-01T01:36:14;99914.09;;;14.98;100.00
42951;BME280;28592;51.064;17.192;2022-08-01T01:39:02;99911.77;;;14.95;100.00
42951;BME280;28592;51.064;17.192;2022-08-01T01:41:51;99905.62;;;14.94;100.00
42951;BME280;28592;51.064;17.192;2022-08-01T01:44:39;99910.27;;;15.00;100.00
42951;BME280;28592;51.064;17.192;2022-08-01T01:47:25;99900.09;;;15.04;100.00
42951;BME280;28592;51.064;17.192;2022-08-01T01:50:15;99905.10;;;14.99;100.00
42951;BME280;28592;51.064;17.192;2022-08-01T01:53:02;99896.43;;;14.97;100.00
42951;BME280;28592;51.064;17.192;2022-08-01T01:55:52;99898.25;;;14.96;100.00
42951;BME280;28592;51.064;17.192;2022-08-01T01:58:39;99890.38;;;15.11;100.00
42951;BME280;28592;51.064;17.192;2022-08-01T02:01:27;99889.02;;;15.15;100.00
42951;BME280;28592;51.064;17.192;2022-08-01T02:04:14;99886.34;;;15.15;100.00
42951;BME280;28592;51.064;17.192;2022-08-01T02:07:01;99888.66;;;15.18;100.00
42951;BME280;28592;51.064;17.192;2022-08-01T02:09:47;99888.64;;;15.26;100.00
42951;BME280;28592;51.064;17.192;2022-08-01T02:12:36;99886.63;;;15.28;100.00
42951;BME280;28592;51.064;17.192;2022-08-01T02:15:23;99890.11;;;15.28;100.00
42951;BME280;28592;51.064;17.192;2022-08-01T02:18:10;99887.44;;;15.28;100.00
42951;BME280;28592;51.064;17.192;2022-08-01T02:20:59;99892.78;;;15.28;100.00
42951;BME280;28592;51.064;17.192;2022-08-01T02:23:45;99894.30;;;15.31;100.00
42951;BME280;28592;51.064;17.192;2022-08-01T02:26:33;99895.28;;;15.30;100.00
42951;BME280;28592;51.064;17.192;2022-08-01T02:29:24;99891.97;;;15.28;100.00
42951;BME280;28592;51.064;17.192;2022-08-01T02:32:20;99893.63;;;15.29;100.00
42951;BME280;28592;51.064;17.192;2022-08-01T02:35:17;99894.27;;;15.39;100.00
42951;BME280;28592;51.064;17.192;2022-08-01T02:38:05;99886.42;;;15.37;100.00
42951;BME280;28592;51.064;17.192;2022-08-01T02:40:52;99889.23;;;15.44;100.00
42951;BME280;28592;51.064;17.192;2022-08-01T02:43:46;99887.23;;;15.46;100.00
42951;BME280;28592;51.064;17.192;2022-08-01T02:46:39;99889.06;;;15.45;100.00
42951;BME280;28592;51.064;17.192;2022-08-01T02:49:26;99894.89;;;15.49;100.00
42951;BME280;28592;51.064;17.192;2022-08-01T02:52:16;99887.90;;;15.48;100.00
42951;BME280;28592;51.064;17.192;2022-08-01T02:55:03;99894.40;;;15.45;100.00
42951;BME280;28592;51.064;17.192;2022-08-01T02:57:49;99891.91;;;15.44;100.00
42951;BME280;28592;51.064;17.192;2022-08-01T03:00:38;99895.59;;;15.35;100.00
42951;BME280;28592;51.064;17.192;2022-08-01T03:03:25;99890.43;;;15.33;100.00
42951;BME280;28592;51.064;17.192;2022-08-01T03:06:11;99889.41;;;15.34;100.00
42951;BME280;28592;51.064;17.192;2022-08-01T03:09:00;99890.92;;;15.37;100.00
42951;BME280;28592;51.064;17.192;2022-08-01T03:11:49;99893.23;;;15.48;100.00
42951;BME280;28592;51.064;17.192;2022-08-01T03:14:39;99891.34;;;15.56;100.00
42951;BME280;28592;51.064;17.192;2022-08-01T03:17:28;99888.00;;;15.54;100.00
42951;BME280;28592;51.064;17.192;2022-08-01T03:20:16;99891.47;;;15.63;100.00
42951;BME280;28592;51.064;17.192;2022-08-01T03:23:07;99892.77;;;15.90;100.00
42951;BME280;28592;51.064;17.192;2022-08-01T03:25:54;99892.95;;;15.88;100.00
42951;BME280;28592;51.064;17.192;2022-08-01T03:28:40;99893.56;;;15.98;100.00
42951;BME280;28592;51.064;17.192;2022-08-01T03:31:27;99900.42;;;16.15;100.00
42951;BME280;28592;51.064;17.192;2022-08-01T03:34:13;99896.09;;;16.14;100.00
42951;BME280;28592;51.064;17.192;2022-08-01T03:40:06;99889.89;;;16.36;100.00
42951;BME280;28592;51.064;17.192;2022-08-01T03:42:58;99889.05;;;16.36;100.00
42951;BME280;28592;51.064;17.192;2022-08-01T03:45:49;99890.70;;;16.59;100.00
42951;BME280;28592;51.064;17.192;2022-08-01T03:48:38;99889.23;;;16.71;100.00
42951;BME280;28592;51.064;17.192;2022-08-01T03:51:25;99893.30;;;16.82;100.00
42951;BME280;28592;51.064;17.192;2022-08-01T03:54:11;99885.16;;;16.90;100.00
42951;BME280;28592;51.064;17.192;2022-08-01T03:56:58;99887.83;;;16.90;100.00
42951;BME280;28592;51.064;17.192;2022-08-01T03:59:45;99887.47;;;17.07;100.00
42951;BME280;28592;51.064;17.192;2022-08-01T04:02:31;99891.61;;;17.24;100.00
42951;BME280;28592;51.064;17.192;2022-08-01T04:05:21;99888.94;;;17.24;100.00
42951;BME280;28592;51.064;17.192;2022-08-01T04:08:09;99896.22;;;17.30;100.00
42951;BME280;28592;51.064;17.192;2022-08-01T04:10:55;99899.86;;;17.59;100.00
42951;BME280;28592;51.064;17.192;2022-08-01T04:13:40;99901.78;;;17.65;100.00
42951;BME280;28592;51.064;17.192;2022-08-01T04:16:26;99907.03;;;17.73;100.00
42951;BME280;28592;51.064;17.192;2022-08-01T04:19:11;99901.87;;;17.71;100.00
42951;BME280;28592;51.064;17.192;2022-08-01T04:21:57;99903.48;;;17.87;100.00
42951;BME280;28592;51.064;17.192;2022-08-01T04:24:48;99908.46;;;17.90;100.00
42951;BME280;28592;51.064;17.192;2022-08-01T04:27:39;99917.45;;;17.82;100.00
42951;BME280;28592;51.064;17.192;2022-08-01T04:30:31;99909.87;;;17.86;100.00
42951;BME280;28592;51.064;17.192;2022-08-01T04:33:19;99908.92;;;17.93;100.00
42951;BME280;28592;51.064;17.192;2022-08-01T04:36:06;99907.81;;;17.88;100.00
42951;BME280;28592;51.064;17.192;2022-08-01T04:38:55;99905.66;;;17.98;100.00
42951;BME280;28592;51.064;17.192;2022-08-01T04:41:44;99898.77;;;18.10;100.00
42951;BME280;28592;51.064;17.192;2022-08-01T04:44:32;99898.48;;;18.26;100.00
42951;BME280;28592;51.064;17.192;2022-08-01T04:47:17;99896.83;;;18.25;100.00
42951;BME280;28592;51.064;17.192;2022-08-01T04:50:07;99902.65;;;18.28;100.00
42951;BME280;28592;51.064;17.192;2022-08-01T04:52:53;99901.81;;;18.28;100.00
42951;BME280;28592;51.064;17.192;2022-08-01T04:55:41;99901.19;;;18.05;100.00
42951;BME280;28592;51.064;17.192;2022-08-01T04:58:26;99904.13;;;18.10;100.00
42951;BME280;28592;51.064;17.192;2022-08-01T05:01:12;99903.48;;;18.08;100.00
42951;BME280;28592;51.064;17.192;2022-08-01T05:03:57;99907.88;;;18.15;100.00
42951;BME280;28592;51.064;17.192;2022-08-01T05:06:43;99904.36;;;18.15;100.00
42951;BME280;28592;51.064;17.192;2022-08-01T05:09:28;99908.34;;;18.19;100.00
42951;BME280;28592;51.064;17.192;2022-08-01T05:12:15;99912.28;;;18.23;100.00
42951;BME280;28592;51.064;17.192;2022-08-01T05:15:04;99906.72;;;18.24;100.00
42951;BME280;28592;51.064;17.192;2022-08-01T05:17:50;99911.77;;;18.34;100.00
42951;BME280;28592;51.064;17.192;2022-08-01T05:20:36;99903.07;;;18.32;100.00
42951;BME280;28592;51.064;17.192;2022-08-01T05:23:22;99910.50;;;18.51;100.00
42951;BME280;28592;51.064;17.192;2022-08-01T05:26:08;99907.48;;;18.60;100.00
42951;BME280;28592;51.064;17.192;2022-08-01T05:28:53;99904.88;;;18.73;100.00
42951;BME280;28592;51.064;17.192;2022-08-01T05:31:38;99906.72;;;18.73;100.00
42951;BME280;28592;51.064;17.192;2022-08-01T05:34:24;99904.03;;;18.45;100.00
42951;BME280;28592;51.064;17.192;2022-08-01T05:37:13;99902.14;;;18.67;100.00
42951;BME280;28592;51.064;17.192;2022-08-01T05:40:01;99897.47;;;18.75;100.00
42951;BME280;28592;51.064;17.192;2022-08-01T05:42:46;99899.70;;;18.72;100.00
42951;BME280;28592;51.064;17.192;2022-08-01T05:45:32;99893.50;;;18.71;100.00
42951;BME280;28592;51.064;17.192;2022-08-01T05:48:17;99907.17;;;18.49;100.00
42951;BME280;28592;51.064;17.192;2022-08-01T05:51:03;99907.55;;;18.46;100.00
42951;BME280;28592;51.064;17.192;2022-08-01T05:53:49;99904.36;;;18.36;100.00
42951;BME280;28592;51.064;17.192;2022-08-01T05:56:35;99905.36;;;18.35;100.00
42951;BME280;28592;51.064;17.192;2022-08-01T05:59:21;99909.20;;;18.47;100.00
42951;BME280;28592;51.064;17.192;2022-08-01T06:02:06;99902.39;;;18.44;100.00
42951;BME280;28592;51.064;17.192;2022-08-01T06:04:54;99908.23;;;18.54;100.00
42951;BME280;28592;51.064;17.192;2022-08-01T06:07:40;99895.84;;;18.53;100.00
42951;BME280;28592;51.064;17.192;2022-08-01T06:10:26;99901.96;;;19.02;100.00
42951;BME280;28592;51.064;17.192;2022-08-01T06:13:12;99900.52;;;19.00;100.00
42951;BME280;28592;51.064;17.192;2022-08-01T06:15:58;99913.14;;;19.06;100.00
42951;BME280;28592;51.064;17.192;2022-08-01T06:18:43;99912.34;;;19.12;100.00
42951;BME280;28592;51.064;17.192;2022-08-01T06:21:32;99910.91;;;19.16;100.00
42951;BME280;28592;51.064;17.192;2022-08-01T06:24:17;99906.98;;;19.12;100.00
42951;BME280;28592;51.064;17.192;2022-08-01T06:27:03;99913.00;;;19.20;100.00
42951;BME280;28592;51.064;17.192;2022-08-01T06:29:48;99902.57;;;19.39;100.00
42951;BME280;28592;51.064;17.192;2022-08-01T06:32:34;99908.14;;;19.37;100.00
42951;BME280;28592;51.064;17.192;2022-08-01T06:35:20;99917.15;;;19.70;100.00
42951;BME280;28592;51.064;17.192;2022-08-01T06:38:05;99919.03;;;19.70;100.00
42951;BME280;28592;51.064;17.192;2022-08-01T06:40:54;99918.84;;;19.84;100.00
42951;BME280;28592;51.064;17.192;2022-08-01T06:43:39;99917.71;;;20.39;100.00
42951;BME280;28592;51.064;17.192;2022-08-01T06:46:24;99919.58;;;20.51;100.00
42951;BME280;28592;51.064;17.192;2022-08-01T06:49:10;99913.55;;;20.75;100.00
42951;BME280;28592;51.064;17.192;2022-08-01T06:51:55;99908.38;;;20.74;100.00
42951;BME280;28592;51.064;17.192;2022-08-01T06:54:41;99917.70;;;20.98;100.00
42951;BME280;28592;51.064;17.192;2022-08-01T06:57:26;99912.31;;;20.98;100.00
42951;BME280;28592;51.064;17.192;2022-08-01T07:00:12;99915.86;;;21.49;100.00
42951;BME280;28592;51.064;17.192;2022-08-01T07:02:58;99913.38;;;21.47;100.00
42951;BME280;28592;51.064;17.192;2022-08-01T07:05:44;99925.23;;;21.90;100.00
42951;BME280;28592;51.064;17.192;2022-08-01T07:08:29;99913.88;;;22.13;100.00
42951;BME280;28592;51.064;17.192;2022-08-01T07:11:15;99919.45;;;22.18;100.00
42951;BME280;28592;51.064;17.192;2022-08-01T07:14:01;99917.09;;;22.28;100.00
42951;BME280;28592;51.064;17.192;2022-08-01T07:16:48;99926.46;;;22.25;100.00
42951;BME280;28592;51.064;17.192;2022-08-01T07:19:37;99919.42;;;22.24;100.00
42951;BME280;28592;51.064;17.192;2022-08-01T07:22:22;99924.16;;;22.29;100.00
42951;BME280;28592;51.064;17.192;2022-08-01T07:25:08;99920.73;;;22.40;100.00
42951;BME280;28592;51.064;17.192;2022-08-01T07:27:53;99916.91;;;22.54;100.00
42951;BME280;28592;51.064;17.192;2022-08-01T07:30:39;99929.52;;;22.85;100.00
42951;BME280;28592;51.064;17.192;2022-08-01T07:33:28;99924.00;;;22.98;100.00
42951;BME280;28592;51.064;17.192;2022-08-01T07:36:14;99923.01;;;23.10;100.00
42951;BME280;28592;51.064;17.192;2022-08-01T07:38:59;99931.25;;;23.40;100.00
42951;BME280;28592;51.064;17.192;2022-08-01T07:41:46;99933.34;;;23.38;100.00
42951;BME280;28592;51.064;17.192;2022-08-01T07:44:31;99926.39;;;23.24;100.00
42951;BME280;28592;51.064;17.192;2022-08-01T07:47:25;99934.56;;;23.42;100.00
42951;BME280;28592;51.064;17.192;2022-08-01T07:50:10;99923.49;;;23.61;100.00
42951;BME280;28592;51.064;17.192;2022-08-01T07:52:58;99926.40;;;24.07;97.21
42951;BME280;28592;51.064;17.192;2022-08-01T07:55:43;99920.98;;;24.07;97.24
42951;BME280;28592;51.064;17.192;2022-08-01T07:58:32;99925.23;;;24.56;95.39
42951;BME280;28592;51.064;17.192;2022-08-01T08:01:18;99916.98;;;24.51;95.45
42951;BME280;28592;51.064;17.192;2022-08-01T08:04:08;99921.21;;;25.28;95.12
42951;BME280;28592;51.064;17.192;2022-08-01T08:06:56;99919.93;;;25.19;90.66
42951;BME280;28592;51.064;17.192;2022-08-01T08:09:41;99928.34;;;24.71;83.62
42951;BME280;28592;51.064;17.192;2022-08-01T08:12:27;99925.40;;;24.73;84.18
42951;BME280;28592;51.064;17.192;2022-08-01T08:15:13;99930.52;;;24.63;84.85
42951;BME280;28592;51.064;17.192;2022-08-01T08:17:58;99928.89;;;24.62;84.87
42951;BME280;28592;51.064;17.192;2022-08-01T08:20:43;99923.23;;;24.63;84.28
42951;BME280;28592;51.064;17.192;2022-08-01T08:23:29;99925.11;;;24.63;86.15
42951;BME280;28592;51.064;17.192;2022-08-01T08:26:26;99938.34;;;24.71;85.27
42951;BME280;28592;51.064;17.192;2022-08-01T08:29:11;99935.64;;;24.71;84.94
42951;BME280;28592;51.064;17.192;2022-08-01T08:31:56;99943.52;;;24.84;82.52
42951;BME280;28592;51.064;17.192;2022-08-01T08:34:42;99941.89;;;24.83;82.47
42951;BME280;28592;51.064;17.192;2022-08-01T08:37:27;99944.23;;;24.68;82.61
42951;BME280;28592;51.064;17.192;2022-08-01T08:40:14;99952.52;;;24.96;81.85
42951;BME280;28592;51.064;17.192;2022-08-01T08:43:06;99944.62;;;24.94;81.67
42951;BME280;28592;51.064;17.192;2022-08-01T08:45:52;99947.84;;;25.54;80.81
42951;BME280;28592;51.064;17.192;2022-08-01T08:48:49;99951.31;;;25.15;79.39
42951;BME280;28592;51.064;17.192;2022-08-01T08:51:38;99944.25;;;25.14;79.33
42951;BME280;28592;51.064;17.192;2022-08-01T08:54:35;99952.24;;;25.32;79.62
42951;BME280;28592;51.064;17.192;2022-08-01T08:57:25;99955.31;;;25.24;79.90
42951;BME280;28592;51.064;17.192;2022-08-01T09:00:14;99957.22;;;25.35;80.09
42951;BME280;28592;51.064;17.192;2022-08-01T09:03:06;99951.80;;;25.35;80.06
42951;BME280;28592;51.064;17.192;2022-08-01T09:05:51;99956.14;;;25.47;79.99
42951;BME280;28592;51.064;17.192;2022-08-01T09:08:37;99971.79;;;25.57;79.65
42951;BME280;28592;51.064;17.192;2022-08-01T09:11:23;99970.29;;;24.92;81.72
42951;BME280;28592;51.064;17.192;2022-08-01T09:14:12;99974.67;;;24.93;83.75
42951;BME280;28592;51.064;17.192;2022-08-01T09:17:05;99970.98;;;25.22;84.85
42951;BME280;28592;51.064;17.192;2022-08-01T09:19:55;99964.75;;;25.21;84.89
42951;BME280;28592;51.064;17.192;2022-08-01T09:22:45;99969.69;;;25.13;83.59
42951;BME280;28592;51.064;17.192;2022-08-01T09:28:29;99973.84;;;25.15;82.93
42951;BME280;28592;51.064;17.192;2022-08-01T09:31:18;99966.52;;;24.70;84.11
42951;BME280;28592;51.064;17.192;2022-08-01T09:34:04;99965.68;;;24.69;84.03
42951;BME280;28592;51.064;17.192;2022-08-01T09:36:52;99967.82;;;24.79;84.92
42951;BME280;28592;51.064;17.192;2022-08-01T09:39:40;99965.20;;;25.30;85.24
42951;BME280;28592;51.064;17.192;2022-08-01T09:42:29;99960.53;;;25.37;82.62
42951;BME280;28592;51.064;17.192;2022-08-01T09:48:11;99964.88;;;25.38;83.95
42951;BME280;28592;51.064;17.192;2022-08-01T09:50:58;99962.37;;;25.48;83.22
42951;BME280;28592;51.064;17.192;2022-08-01T09:53:46;99960.73;;;25.47;83.03
42951;BME280;28592;51.064;17.192;2022-08-01T09:56:39;99961.66;;;26.04;83.82
42951;BME280;28592;51.064;17.192;2022-08-01T09:59:43;99961.09;;;26.18;81.07
42951;BME280;28592;51.064;17.192;2022-08-01T10:02:40;99964.89;;;26.17;80.76
42951;BME280;28592;51.064;17.192;2022-08-01T10:05:35;99958.70;;;26.05;78.72
42951;BME280;28592;51.064;17.192;2022-08-01T10:08:21;99960.69;;;26.10;77.75
42951;BME280;28592;51.064;17.192;2022-08-01T10:11:13;99956.42;;;26.30;79.11
42951;BME280;28592;51.064;17.192;2022-08-01T10:14:15;99953.67;;;26.58;78.87
42951;BME280;28592;51.064;17.192;2022-08-01T10:17:08;99954.81;;;26.62;78.55
42951;BME280;28592;51.064;17.192;2022-08-01T10:19:58;99950.24;;;26.63;78.39
42951;BME280;28592;51.064;17.192;2022-08-01T10:22:47;99953.85;;;26.68;77.55
42951;BME280;28592;51.064;17.192;2022-08-01T10:25:40;99949.50;;;26.67;77.25
42951;BME280;28592;51.064;17.192;2022-08-01T10:28:26;99952.53;;;26.54;77.88
42951;BME280;28592;51.064;17.192;2022-08-01T10:31:16;99960.33;;;26.06;78.25
42951;BME280;28592;51.064;17.192;2022-08-01T10:34:06;99948.37;;;25.79;77.87
42951;BME280;28592;51.064;17.192;2022-08-01T10:36:52;99946.38;;;26.14;76.98
42951;BME280;28592;51.064;17.192;2022-08-01T10:39:38;99942.82;;;26.14;76.83
42951;BME280;28592;51.064;17.192;2022-08-01T10:42:24;99946.86;;;26.11;78.47
42951;BME280;28592;51.064;17.192;2022-08-01T10:45:13;99941.90;;;26.53;76.78
42951;BME280;28592;51.064;17.192;2022-08-01T10:48:09;99949.03;;;26.42;79.22
42951;BME280;28592;51.064;17.192;2022-08-01T10:51:00;99942.91;;;26.80;78.32
42951;BME280;28592;51.064;17.192;2022-08-01T10:53:50;99937.72;;;26.78;78.37
42951;BME280;28592;51.064;17.192;2022-08-01T10:56:45;99942.39;;;26.99;75.80
42951;BME280;28592;51.064;17.192;2022-08-01T10:59:31;99936.12;;;26.99;75.57
42951;BME280;28592;51.064;17.192;2022-08-01T11:05:20;99947.03;;;27.37;75.78
42951;BME280;28592;51.064;17.192;2022-08-01T11:08:10;99952.38;;;26.94;75.96
42951;BME280;28592;51.064;17.192;2022-08-01T11:11:02;99943.23;;;27.00;77.18
42951;BME280;28592;51.064;17.192;2022-08-01T11:31:45;99941.80;;;27.30;74.93
42951;BME280;28592;51.064;17.192;2022-08-01T11:37:29;99931.28;;;27.61;76.91
42951;BME280;28592;51.064;17.192;2022-08-01T11:40:21;99929.61;;;28.03;76.31
42951;BME280;28592;51.064;17.192;2022-08-01T11:46:02;99931.24;;;28.04;75.93
42951;BME280;28592;51.064;17.192;2022-08-01T11:51:48;99942.25;;;27.66;77.08
42951;BME280;28592;51.064;17.192;2022-08-01T11:54:46;99943.23;;;28.03;75.75
42951;BME280;28592;51.064;17.192;2022-08-01T11:57:34;99933.97;;;28.30;74.25
42951;BME280;28592;51.064;17.192;2022-08-01T12:00:32;99944.84;;;28.52;73.08
42951;BME280;28592;51.064;17.192;2022-08-01T12:03:24;99941.27;;;28.51;72.82
42951;BME280;28592;51.064;17.192;2022-08-01T12:09:23;99940.83;;;27.85;71.96
42951;BME280;28592;51.064;17.192;2022-08-01T12:12:16;99931.78;;;27.79;73.06
42951;BME280;28592;51.064;17.192;2022-08-01T12:15:06;99931.08;;;27.89;73.18
42951;BME280;28592;51.064;17.192;2022-08-01T12:18:00;99937.42;;;28.21;73.26
42951;BME280;28592;51.064;17.192;2022-08-01T12:20:49;99936.30;;;28.17;71.58
42951;BME280;28592;51.064;17.192;2022-08-01T12:23:34;99935.44;;;28.11;73.58
42951;BME280;28592;51.064;17.192;2022-08-01T12:26:22;99936.04;;;28.18;72.36
42951;BME280;28592;51.064;17.192;2022-08-01T12:32:23;99934.16;;;28.82;72.13
42951;BME280;28592;51.064;17.192;2022-08-01T12:35:18;99921.25;;;28.67;71.52
42951;BME280;28592;51.064;17.192;2022-08-01T12:38:15;99930.37;;;29.25;70.19
42951;BME280;28592;51.064;17.192;2022-08-01T12:41:03;99928.13;;;29.17;70.62
42951;BME280;28592;51.064;17.192;2022-08-01T12:43:54;99918.25;;;29.57;68.80
42951;BME280;28592;51.064;17.192;2022-08-01T12:46:46;99909.22;;;29.57;68.54
42951;BME280;28592;51.064;17.192;2022-08-01T12:49:35;99915.95;;;28.92;70.13
42951;BME280;28592;51.064;17.192;2022-08-01T12:52:31;99923.66;;;28.64;70.49
42951;BME280;28592;51.064;17.192;2022-08-01T12:55:18;99922.50;;;28.55;69.48
42951;BME280;28592;51.064;17.192;2022-08-01T12:58:10;99924.31;;;28.18;69.24
42951;BME280;28592;51.064;17.192;2022-08-01T13:01:06;99916.13;;;28.18;69.60
42951;BME280;28592;51.064;17.192;2022-08-01T13:04:01;99916.77;;;27.77;71.40
42951;BME280;28592;51.064;17.192;2022-08-01T13:06:54;99928.17;;;27.52;71.76
42951;BME280;28592;51.064;17.192;2022-08-01T13:09:51;99916.50;;;27.78;71.11
42951;BME280;28592;51.064;17.192;2022-08-01T13:12:38;99914.03;;;27.77;71.03
42951;BME280;28592;51.064;17.192;2022-08-01T13:15:28;99919.91;;;28.43;72.68
42951;BME280;28592;51.064;17.192;2022-08-01T13:18:30;99918.27;;;28.42;72.62
42951;BME280;28592;51.064;17.192;2022-08-01T13:21:23;99916.66;;;27.88;71.69
42951;BME280;28592;51.064;17.192;2022-08-01T13:24:11;99915.83;;;27.88;71.73
42951;BME280;28592;51.064;17.192;2022-08-01T13:27:00;99921.42;;;27.55;72.26
42951;BME280;28592;51.064;17.192;2022-08-01T13:29:49;99913.49;;;27.75;73.67
42951;BME280;28592;51.064;17.192;2022-08-01T13:35:35;99917.42;;;28.68;70.43
42951;BME280;28592;51.064;17.192;2022-08-01T13:38:20;99921.75;;;29.01;71.55
42951;BME280;28592;51.064;17.192;2022-08-01T13:41:20;99916.30;;;29.01;71.39
42951;BME280;28592;51.064;17.192;2022-08-01T13:44:12;99918.88;;;29.79;69.73
42951;BME280;28592;51.064;17.192;2022-08-01T13:47:02;99920.02;;;29.93;67.34
42951;BME280;28592;51.064;17.192;2022-08-01T13:49:52;99910.71;;;29.84;70.02
42951;BME280;28592;51.064;17.192;2022-08-01T13:52:41;99929.80;;;29.18;69.10
42951;BME280;28592;51.064;17.192;2022-08-01T13:55:32;99924.25;;;28.71;69.91
42951;BME280;28592;51.064;17.192;2022-08-01T13:58:19;99930.58;;;28.76;70.73
42951;BME280;28592;51.064;17.192;2022-08-01T14:01:06;99934.65;;;29.11;71.29
42951;BME280;28592;51.064;17.192;2022-08-01T14:03:55;99929.57;;;29.29;71.41
42951;BME280;28592;51.064;17.192;2022-08-01T14:06:43;99932.30;;;29.29;71.25
42951;BME280;28592;51.064;17.192;2022-08-01T14:09:38;99930.23;;;28.68;70.27
42951;BME280;28592;51.064;17.192;2022-08-01T14:12:34;99933.30;;;28.45;72.22
42951;BME280;28592;51.064;17.192;2022-08-01T14:15:22;99930.86;;;28.80;70.42
42951;BME280;28592;51.064;17.192;2022-08-01T14:18:09;99939.00;;;29.07;69.71
42951;BME280;28592;51.064;17.192;2022-08-01T14:20:56;99940.89;;;29.06;69.46
42951;BME280;28592;51.064;17.192;2022-08-01T14:23:43;99926.40;;;30.24;68.67
42951;BME280;28592;51.064;17.192;2022-08-01T14:26:32;99928.35;;;30.84;64.42
42951;BME280;28592;51.064;17.192;2022-08-01T14:29:21;99930.78;;;30.95;65.76
42951;BME280;28592;51.064;17.192;2022-08-01T14:32:09;99928.05;;;30.95;65.62
42951;BME280;28592;51.064;17.192;2022-08-01T14:34:56;99935.84;;;31.62;63.89
42951;BME280;28592;51.064;17.192;2022-08-01T14:37:43;99937.53;;;31.48;61.45
42951;BME280;28592;51.064;17.192;2022-08-01T14:40:29;99939.52;;;31.12;62.36
42951;BME280;28592;51.064;17.192;2022-08-01T14:43:19;99933.20;;;31.22;62.54
42951;BME280;28592;51.064;17.192;2022-08-01T14:46:05;99933.76;;;31.19;61.72
42951;BME280;28592;51.064;17.192;2022-08-01T14:48:55;99924.98;;;31.22;63.49
42951;BME280;28592;51.064;17.192;2022-08-01T14:51:46;99932.73;;;30.75;64.75
42951;BME280;28592;51.064;17.192;2022-08-01T14:54:34;99937.78;;;29.96;64.82
42951;BME280;28592;51.064;17.192;2022-08-01T14:57:24;99933.08;;;29.76;66.81
42951;BME280;28592;51.064;17.192;2022-08-01T15:00:10;99941.07;;;29.98;65.72
42951;BME280;28592;51.064;17.192;2022-08-01T15:02:58;99947.69;;;29.50;66.18
42951;BME280;28592;51.064;17.192;2022-08-01T15:05:46;99936.50;;;29.47;66.29
42951;BME280;28592;51.064;17.192;2022-08-01T15:08:39;99943.86;;;29.04;66.05
42951;BME280;28592;51.064;17.192;2022-08-01T15:11:26;99947.68;;;29.03;66.19
42951;BME280;28592;51.064;17.192;2022-08-01T15:14:13;99940.63;;;29.08;68.07
42951;BME280;28592;51.064;17.192;2022-08-01T15:17:10;99947.23;;;29.12;66.81
42951;BME280;28592;51.064;17.192;2022-08-01T15:19:56;99932.22;;;28.77;67.48
42951;BME280;28592;51.064;17.192;2022-08-01T15:22:42;99942.00;;;28.15;68.54
42951;BME280;28592;51.064;17.192;2022-08-01T15:25:27;99944.47;;;28.17;69.34
42951;BME280;28592;51.064;17.192;2022-08-01T15:28:17;99932.17;;;27.88;69.77